sensor_id;sensor_type;location;lat;lon;timestamp;P1;durP1;ratioP1;P2;durP2;ratioP2
22184;SDS011;11258;52.516;13.318;2023-11-21T00:02:13;11.60;;;5.00;;
22184;SDS011;11258;52.516;13.318;2023-11-21T00:04:39;11.43;;;6.10;;
22184;SDS011;11258;52.516;13.318;2023-11-21T00:07:04;10.60;;;4.97;;
22184;SDS011;11258;52.516;13.318;2023-11-21T00:09:31;17.03;;;7.57;;
22184;SDS011;11258;52.516;13.318;2023-11-21T00:11:57;9.80;;;6.03;;
22184;SDS011;11258;52.516;13.318;2023-11-21T00:14:24;14.03;;;7.13;;
22184;SDS011;11258;52.516;13.318;2023-11-21T00:16:50;29.67;;;12.13;;
22184;SDS011;11258;52.516;13.318;2023-11-21T00:19:15;15.27;;;7.87;;
22184;SDS011;11258;52.516;13.318;2023-11-21T00:21:41;17.80;;;9.43;;
22184;SDS011;11258;52.516;13.318;2023-11-21T00:24:09;13.30;;;7.87;;
22184;SDS011;11258;52.516;13.318;2023-11-21T00:26:35;14.63;;;7.63;;
22184;SDS011;11258;52.516;13.318;2023-11-21T00:29:03;15.30;;;7.67;;
22184;SDS011;11258;52.516;13.318;2023-11-21T00:31:28;16.17;;;8.13;;
22184;SDS011;11258;52.516;13.318;2023-11-21T00:33:55;15.20;;;8.20;;
22184;SDS011;11258;52.516;13.318;2023-11-21T00:36:21;17.33;;;8.80;;
22184;SDS011;11258;52.516;13.318;2023-11-21T00:38:47;18.07;;;8.63;;
22184;SDS011;11258;52.516;13.318;2023-11-21T00:41:13;25.00;;;9.70;;
22184;SDS011;11258;52.516;13.318;2023-11-21T00:43:39;22.27;;;9.30;;
22184;SDS011;11258;52.516;13.318;2023-11-21T00:46:05;20.70;;;9.57;;
22184;SDS011;11258;52.516;13.318;2023-11-21T00:48:34;24.67;;;9.83;;
22184;SDS011;11258;52.516;13.318;2023-11-21T00:50:59;27.87;;;10.33;;
22184;SDS011;11258;52.516;13.318;2023-11-21T00:53:25;22.93;;;10.87;;
22184;SDS011;11258;52.516;13.318;2023-11-21T00:55:51;25.77;;;11.27;;
22184;SDS011;11258;52.516;13.318;2023-11-21T00:58:22;24.13;;;11.17;;
22184;SDS011;11258;52.516;13.318;2023-11-21T01:00:48;33.50;;;13.07;;
22184;SDS011;11258;52.516;13.318;2023-11-21T01:03:14;28.07;;;11.87;;
22184;SDS011;11258;52.516;13.318;2023-11-21T01:05:39;27.03;;;12.20;;
22184;SDS011;11258;52.516;13.318;2023-11-21T01:08:05;29.97;;;12.97;;
22184;SDS011;11258;52.516;13.318;2023-11-21T01:10:31;28.50;;;12.43;;
22184;SDS011;11258;52.516;13.318;2023-11-21T01:12:56;37.73;;;14.23;;
22184;SDS011;11258;52.516;13.318;2023-11-21T01:15:23;33.70;;;13.70;;
22184;SDS011;11258;52.516;13.318;2023-11-21T01:17:51;35.40;;;13.40;;
22184;SDS011;11258;52.516;13.318;2023-11-21T01:20:17;33.53;;;13.03;;
22184;SDS011;11258;52.516;13.318;2023-11-21T01:22:43;31.50;;;13.40;;
22184;SDS011;11258;52.516;13.318;2023-11-21T01:25:08;31.83;;;12.60;;
22184;SDS011;11258;52.516;13.318;2023-11-21T01:27:35;27.70;;;12.57;;
22184;SDS011;11258;52.516;13.318;2023-11-21T01:30:02;29.43;;;13.27;;
22184;SDS011;11258;52.516;13.318;2023-11-21T01:32:28;33.87;;;12.00;;
22184;SDS011;11258;52.516;13.318;2023-11-21T01:34:54;28.53;;;11.67;;
22184;SDS011;11258;52.516;13.318;2023-11-21T01:37:22;31.27;;;12.83;;
22184;SDS011;11258;52.516;13.318;2023-11-21T01:39:48;24.60;;;11.73;;
22184;SDS011;11258;52.516;13.318;2023-11-21T01:42:14;27.60;;;11.93;;
22184;SDS011;11258;52.516;13.318;2023-11-21T01:44:39;29.30;;;12.23;;
22184;SDS011;11258;52.516;13.318;2023-11-21T01:47:05;25.83;;;11.17;;
22184;SDS011;11258;52.516;13.318;2023-11-21T01:49:33;29.10;;;10.63;;
22184;SDS011;11258;52.516;13.318;2023-11-21T01:51:59;31.83;;;12.47;;
22184;SDS011;11258;52.516;13.318;2023-11-21T01:54:26;34.63;;;11.30;;
22184;SDS011;11258;52.516;13.318;2023-11-21T01:56:54;30.23;;;10.83;;
22184;SDS011;11258;52.516;13.318;2023-11-21T01:59:20;23.27;;;10.77;;
22184;SDS011;11258;52.516;13.318;2023-11-21T02:01:46;29.90;;;11.90;;
22184;SDS011;11258;52.516;13.318;2023-11-21T02:04:13;25.47;;;11.20;;
22184;SDS011;11258;52.516;13.318;2023-11-21T02:06:39;28.00;;;10.20;;
22184;SDS011;11258;52.516;13.318;2023-11-21T02:09:05;25.40;;;10.70;;
22184;SDS011;11258;52.516;13.318;2023-11-21T02:11:30;25.83;;;9.87;;
22184;SDS011;11258;52.516;13.318;2023-11-21T02:13:58;28.03;;;10.80;;
22184;SDS011;11258;52.516;13.318;2023-11-21T02:16:25;23.20;;;8.87;;
22184;SDS011;11258;52.516;13.318;2023-11-21T02:18:52;17.13;;;7.63;;
22184;SDS011;11258;52.516;13.318;2023-11-21T02:21:18;14.20;;;6.97;;
22184;SDS011;11258;52.516;13.318;2023-11-21T02:23:47;16.43;;;6.60;;
22184;SDS011;11258;52.516;13.318;2023-11-21T02:26:12;14.00;;;6.63;;
22184;SDS011;11258;52.516;13.318;2023-11-21T02:28:39;12.37;;;6.60;;
22184;SDS011;11258;52.516;13.318;2023-11-21T02:31:05;11.60;;;5.77;;
22184;SDS011;11258;52.516;13.318;2023-11-21T02:33:32;14.23;;;6.07;;
22184;SDS011;11258;52.516;13.318;2023-11-21T02:35:59;10.30;;;5.60;;
22184;SDS011;11258;52.516;13.318;2023-11-21T02:38:25;9.47;;;5.50;;
22184;SDS011;11258;52.516;13.318;2023-11-21T02:40:51;10.03;;;5.63;;
22184;SDS011;11258;52.516;13.318;2023-11-21T02:43:16;10.77;;;4.83;;
22184;SDS011;11258;52.516;13.318;2023-11-21T02:45:42;11.07;;;5.23;;
22184;SDS011;11258;52.516;13.318;2023-11-21T02:48:08;8.30;;;5.50;;
22184;SDS011;11258;52.516;13.318;2023-11-21T02:50:34;7.20;;;4.53;;
22184;SDS011;11258;52.516;13.318;2023-11-21T02:53:00;9.67;;;5.47;;
22184;SDS011;11258;52.516;13.318;2023-11-21T02:55:26;9.63;;;4.83;;
22184;SDS011;11258;52.516;13.318;2023-11-21T02:57:53;9.83;;;5.37;;
22184;SDS011;11258;52.516;13.318;2023-11-21T03:00:18;10.33;;;6.00;;
22184;SDS011;11258;52.516;13.318;2023-11-21T03:02:44;9.93;;;5.50;;
22184;SDS011;11258;52.516;13.318;2023-11-21T03:05:12;9.37;;;5.73;;
22184;SDS011;11258;52.516;13.318;2023-11-21T03:07:38;10.13;;;5.93;;
22184;SDS011;11258;52.516;13.318;2023-11-21T03:10:04;8.70;;;5.20;;
22184;SDS011;11258;52.516;13.318;2023-11-21T03:12:31;10.10;;;5.10;;
22184;SDS011;11258;52.516;13.318;2023-11-21T03:14:57;8.13;;;5.23;;
22184;SDS011;11258;52.516;13.318;2023-11-21T03:17:23;9.87;;;5.20;;
22184;SDS011;11258;52.516;13.318;2023-11-21T03:19:49;7.37;;;4.73;;
22184;SDS011;11258;52.516;13.318;2023-11-21T03:22:15;9.47;;;5.20;;
22184;SDS011;11258;52.516;13.318;2023-11-21T03:24:40;6.73;;;4.30;;
22184;SDS011;11258;52.516;13.318;2023-11-21T03:27:06;9.47;;;5.77;;
22184;SDS011;11258;52.516;13.318;2023-11-21T03:29:32;8.47;;;5.37;;
22184;SDS011;11258;52.516;13.318;2023-11-21T03:31:58;7.93;;;5.97;;
22184;SDS011;11258;52.516;13.318;2023-11-21T03:34:24;8.37;;;5.90;;
22184;SDS011;11258;52.516;13.318;2023-11-21T03:36:51;11.17;;;6.50;;
22184;SDS011;11258;52.516;13.318;2023-11-21T03:39:17;6.80;;;4.70;;
22184;SDS011;11258;52.516;13.318;2023-11-21T03:41:44;8.93;;;5.50;;
22184;SDS011;11258;52.516;13.318;2023-11-21T03:44:10;9.37;;;5.90;;
22184;SDS011;11258;52.516;13.318;2023-11-21T03:46:35;8.87;;;5.77;;
22184;SDS011;11258;52.516;13.318;2023-11-21T03:49:01;10.07;;;5.90;;
22184;SDS011;11258;52.516;13.318;2023-11-21T03:51:27;9.43;;;5.77;;
22184;SDS011;11258;52.516;13.318;2023-11-21T03:53:52;9.63;;;5.77;;
22184;SDS011;11258;52.516;13.318;2023-11-21T03:56:18;11.00;;;5.80;;
22184;SDS011;11258;52.516;13.318;2023-11-21T03:58:46;10.27;;;6.27;;
22184;SDS011;11258;52.516;13.318;2023-11-21T04:01:18;9.33;;;5.20;;
22184;SDS011;11258;52.516;13.318;2023-11-21T04:03:48;9.30;;;5.63;;
22184;SDS011;11258;52.516;13.318;2023-11-21T04:06:14;9.00;;;6.20;;
22184;SDS011;11258;52.516;13.318;2023-11-21T04:08:39;9.57;;;6.23;;
22184;SDS011;11258;52.516;13.318;2023-11-21T04:11:05;9.47;;;5.73;;
22184;SDS011;11258;52.516;13.318;2023-11-21T04:13:31;11.13;;;6.73;;
22184;SDS011;11258;52.516;13.318;2023-11-21T04:15:56;12.87;;;7.23;;
22184;SDS011;11258;52.516;13.318;2023-11-21T04:18:22;9.47;;;5.73;;
22184;SDS011;11258;52.516;13.318;2023-11-21T04:20:50;10.53;;;7.27;;
22184;SDS011;11258;52.516;13.318;2023-11-21T04:23:16;12.47;;;6.67;;
22184;SDS011;11258;52.516;13.318;2023-11-21T04:25:41;10.83;;;5.87;;
22184;SDS011;11258;52.516;13.318;2023-11-21T04:28:07;8.73;;;5.63;;
22184;SDS011;11258;52.516;13.318;2023-11-21T04:30:33;11.17;;;5.77;;
22184;SDS011;11258;52.516;13.318;2023-11-21T04:32:59;8.97;;;5.40;;
22184;SDS011;11258;52.516;13.318;2023-11-21T04:35:24;10.47;;;6.23;;
22184;SDS011;11258;52.516;13.318;2023-11-21T04:37:50;9.77;;;5.77;;
22184;SDS011;11258;52.516;13.318;2023-11-21T04:40:16;11.90;;;7.07;;
22184;SDS011;11258;52.516;13.318;2023-11-21T04:42:41;10.63;;;6.13;;
22184;SDS011;11258;52.516;13.318;2023-11-21T04:45:07;10.70;;;5.87;;
22184;SDS011;11258;52.516;13.318;2023-11-21T04:47:34;9.17;;;5.33;;
22184;SDS011;11258;52.516;13.318;2023-11-21T04:50:01;9.50;;;6.07;;
22184;SDS011;11258;52.516;13.318;2023-11-21T04:52:28;9.33;;;5.63;;
22184;SDS011;11258;52.516;13.318;2023-11-21T04:54:53;9.50;;;5.53;;
22184;SDS011;11258;52.516;13.318;2023-11-21T04:57:20;8.47;;;5.20;;
22184;SDS011;11258;52.516;13.318;2023-11-21T04:59:46;8.00;;;5.10;;
22184;SDS011;11258;52.516;13.318;2023-11-21T05:02:13;10.07;;;6.30;;
22184;SDS011;11258;52.516;13.318;2023-11-21T05:04:39;7.97;;;5.07;;
22184;SDS011;11258;52.516;13.318;2023-11-21T05:07:05;8.27;;;5.27;;
22184;SDS011;11258;52.516;13.318;2023-11-21T05:09:30;12.63;;;4.93;;
22184;SDS011;11258;52.516;13.318;2023-11-21T05:11:57;8.27;;;4.60;;
22184;SDS011;11258;52.516;13.318;2023-11-21T05:14:23;6.30;;;4.20;;
22184;SDS011;11258;52.516;13.318;2023-11-21T05:16:48;7.97;;;4.67;;
22184;SDS011;11258;52.516;13.318;2023-11-21T05:19:16;7.30;;;4.57;;
22184;SDS011;11258;52.516;13.318;2023-11-21T05:21:41;6.63;;;4.10;;
22184;SDS011;11258;52.516;13.318;2023-11-21T05:24:07;6.93;;;4.47;;
22184;SDS011;11258;52.516;13.318;2023-11-21T05:26:33;9.37;;;5.07;;
22184;SDS011;11258;52.516;13.318;2023-11-21T05:28:58;7.00;;;4.70;;
22184;SDS011;11258;52.516;13.318;2023-11-21T05:31:24;8.40;;;4.40;;
22184;SDS011;11258;52.516;13.318;2023-11-21T05:33:50;6.83;;;4.50;;
22184;SDS011;11258;52.516;13.318;2023-11-21T05:36:15;6.67;;;4.83;;
22184;SDS011;11258;52.516;13.318;2023-11-21T05:38:41;8.30;;;5.40;;
22184;SDS011;11258;52.516;13.318;2023-11-21T05:41:07;7.27;;;4.67;;
22184;SDS011;11258;52.516;13.318;2023-11-21T05:43:36;9.70;;;5.17;;
22184;SDS011;11258;52.516;13.318;2023-11-21T05:46:01;8.23;;;4.90;;
22184;SDS011;11258;52.516;13.318;2023-11-21T05:48:27;8.73;;;5.10;;
22184;SDS011;11258;52.516;13.318;2023-11-21T05:50:53;7.67;;;4.83;;
22184;SDS011;11258;52.516;13.318;2023-11-21T05:53:18;10.27;;;4.80;;
22184;SDS011;11258;52.516;13.318;2023-11-21T05:55:44;7.73;;;4.23;;
22184;SDS011;11258;52.516;13.318;2023-11-21T05:58:10;7.03;;;4.30;;
22184;SDS011;11258;52.516;13.318;2023-11-21T06:00:35;7.47;;;3.77;;
22184;SDS011;11258;52.516;13.318;2023-11-21T06:03:02;6.30;;;3.83;;
22184;SDS011;11258;52.516;13.318;2023-11-21T06:05:28;6.57;;;4.20;;
22184;SDS011;11258;52.516;13.318;2023-11-21T06:07:55;6.93;;;4.33;;
22184;SDS011;11258;52.516;13.318;2023-11-21T06:10:23;7.10;;;4.43;;
22184;SDS011;11258;52.516;13.318;2023-11-21T06:12:50;7.47;;;4.23;;
22184;SDS011;11258;52.516;13.318;2023-11-21T06:15:16;8.67;;;4.00;;
22184;SDS011;11258;52.516;13.318;2023-11-21T06:17:44;5.40;;;3.50;;
22184;SDS011;11258;52.516;13.318;2023-11-21T06:20:14;7.97;;;4.17;;
22184;SDS011;11258;52.516;13.318;2023-11-21T06:22:43;6.47;;;3.43;;
22184;SDS011;11258;52.516;13.318;2023-11-21T06:25:11;5.40;;;3.43;;
22184;SDS011;11258;52.516;13.318;2023-11-21T06:27:42;5.57;;;3.60;;
22184;SDS011;11258;52.516;13.318;2023-11-21T06:30:12;6.17;;;3.40;;
22184;SDS011;11258;52.516;13.318;2023-11-21T06:32:39;7.60;;;3.40;;
22184;SDS011;11258;52.516;13.318;2023-11-21T06:35:05;6.30;;;3.43;;
22184;SDS011;11258;52.516;13.318;2023-11-21T06:37:32;6.80;;;3.40;;
22184;SDS011;11258;52.516;13.318;2023-11-21T06:39:58;5.17;;;3.37;;
22184;SDS011;11258;52.516;13.318;2023-11-21T06:42:25;5.13;;;3.17;;
22184;SDS011;11258;52.516;13.318;2023-11-21T06:44:51;7.37;;;3.33;;
22184;SDS011;11258;52.516;13.318;2023-11-21T06:47:18;5.50;;;3.20;;
22184;SDS011;11258;52.516;13.318;2023-11-21T06:49:49;5.13;;;3.20;;
22184;SDS011;11258;52.516;13.318;2023-11-21T06:52:15;5.60;;;3.40;;
22184;SDS011;11258;52.516;13.318;2023-11-21T06:54:41;6.77;;;3.70;;
22184;SDS011;11258;52.516;13.318;2023-11-21T06:57:07;5.43;;;3.37;;
22184;SDS011;11258;52.516;13.318;2023-11-21T06:59:33;5.50;;;3.00;;
22184;SDS011;11258;52.516;13.318;2023-11-21T07:01:58;4.27;;;2.93;;
22184;SDS011;11258;52.516;13.318;2023-11-21T07:04:24;5.53;;;3.23;;
22184;SDS011;11258;52.516;13.318;2023-11-21T07:06:51;5.10;;;3.10;;
22184;SDS011;11258;52.516;13.318;2023-11-21T07:09:16;7.07;;;3.77;;
22184;SDS011;11258;52.516;13.318;2023-11-21T07:11:42;6.97;;;3.03;;
22184;SDS011;11258;52.516;13.318;2023-11-21T07:14:08;6.13;;;2.90;;
22184;SDS011;11258;52.516;13.318;2023-11-21T07:16:36;4.20;;;2.80;;
22184;SDS011;11258;52.516;13.318;2023-11-21T07:19:06;4.13;;;2.67;;
22184;SDS011;11258;52.516;13.318;2023-11-21T07:21:32;5.77;;;3.13;;
22184;SDS011;11258;52.516;13.318;2023-11-21T07:23:59;5.33;;;3.23;;
22184;SDS011;11258;52.516;13.318;2023-11-21T07:26:26;4.67;;;2.93;;
22184;SDS011;11258;52.516;13.318;2023-11-21T07:28:52;3.93;;;2.57;;
22184;SDS011;11258;52.516;13.318;2023-11-21T07:31:18;4.33;;;2.80;;
22184;SDS011;11258;52.516;13.318;2023-11-21T07:33:44;3.90;;;2.77;;
22184;SDS011;11258;52.516;13.318;2023-11-21T07:36:13;3.90;;;2.60;;
22184;SDS011;11258;52.516;13.318;2023-11-21T07:38:39;4.40;;;2.93;;
22184;SDS011;11258;52.516;13.318;2023-11-21T07:41:05;3.50;;;2.27;;
22184;SDS011;11258;52.516;13.318;2023-11-21T07:43:33;4.17;;;2.70;;
22184;SDS011;11258;52.516;13.318;2023-11-21T07:46:01;4.60;;;2.70;;
22184;SDS011;11258;52.516;13.318;2023-11-21T07:48:28;5.87;;;3.03;;
22184;SDS011;11258;52.516;13.318;2023-11-21T07:50:58;4.20;;;2.60;;
22184;SDS011;11258;52.516;13.318;2023-11-21T07:53:24;4.70;;;2.90;;
22184;SDS011;11258;52.516;13.318;2023-11-21T07:55:50;5.03;;;3.00;;
22184;SDS011;11258;52.516;13.318;2023-11-21T07:58:17;3.87;;;2.40;;
22184;SDS011;11258;52.516;13.318;2023-11-21T08:00:43;6.23;;;2.80;;
22184;SDS011;11258;52.516;13.318;2023-11-21T08:03:09;3.57;;;2.43;;
22184;SDS011;11258;52.516;13.318;2023-11-21T08:05:36;4.47;;;3.00;;
22184;SDS011;11258;52.516;13.318;2023-11-21T08:08:02;4.23;;;2.57;;
22184;SDS011;11258;52.516;13.318;2023-11-21T08:10:27;4.23;;;2.80;;
22184;SDS011;11258;52.516;13.318;2023-11-21T08:12:53;4.63;;;2.60;;
22184;SDS011;11258;52.516;13.318;2023-11-21T08:15:19;3.87;;;2.40;;
22184;SDS011;11258;52.516;13.318;2023-11-21T08:17:45;5.30;;;3.00;;
22184;SDS011;11258;52.516;13.318;2023-11-21T08:20:11;4.67;;;3.20;;
22184;SDS011;11258;52.516;13.318;2023-11-21T08:22:37;4.60;;;2.80;;
22184;SDS011;11258;52.516;13.318;2023-11-21T08:25:06;6.23;;;2.90;;
22184;SDS011;11258;52.516;13.318;2023-11-21T08:27:32;6.90;;;3.47;;
22184;SDS011;11258;52.516;13.318;2023-11-21T08:29:59;5.20;;;2.67;;
22184;SDS011;11258;52.516;13.318;2023-11-21T08:32:25;4.73;;;2.93;;
22184;SDS011;11258;52.516;13.318;2023-11-21T08:34:51;5.47;;;2.67;;
22184;SDS011;11258;52.516;13.318;2023-11-21T08:37:17;4.27;;;2.70;;
22184;SDS011;11258;52.516;13.318;2023-11-21T08:39:43;4.40;;;2.77;;
22184;SDS011;11258;52.516;13.318;2023-11-21T08:42:09;4.20;;;2.83;;
22184;SDS011;11258;52.516;13.318;2023-11-21T08:44:35;4.20;;;2.93;;
22184;SDS011;11258;52.516;13.318;2023-11-21T08:47:01;5.03;;;3.00;;
22184;SDS011;11258;52.516;13.318;2023-11-21T08:49:27;5.53;;;2.80;;
22184;SDS011;11258;52.516;13.318;2023-11-21T08:51:54;3.57;;;2.40;;
22184;SDS011;11258;52.516;13.318;2023-11-21T08:54:24;5.00;;;2.97;;
22184;SDS011;11258;52.516;13.318;2023-11-21T08:56:51;5.43;;;2.83;;
22184;SDS011;11258;52.516;13.318;2023-11-21T08:59:17;4.13;;;2.87;;
22184;SDS011;11258;52.516;13.318;2023-11-21T09:01:42;7.67;;;2.83;;
22184;SDS011;11258;52.516;13.318;2023-11-21T09:04:08;5.00;;;2.63;;
22184;SDS011;11258;52.516;13.318;2023-11-21T09:06:34;6.07;;;3.33;;
22184;SDS011;11258;52.516;13.318;2023-11-21T09:09:00;3.33;;;2.60;;
22184;SDS011;11258;52.516;13.318;2023-11-21T09:11:25;6.33;;;3.23;;
22184;SDS011;11258;52.516;13.318;2023-11-21T09:13:56;4.47;;;2.60;;
22184;SDS011;11258;52.516;13.318;2023-11-21T09:16:23;5.60;;;2.97;;
22184;SDS011;11258;52.516;13.318;2023-11-21T09:18:48;5.30;;;2.60;;
22184;SDS011;11258;52.516;13.318;2023-11-21T09:21:14;4.03;;;2.70;;
22184;SDS011;11258;52.516;13.318;2023-11-21T09:23:39;3.80;;;2.33;;
22184;SDS011;11258;52.516;13.318;2023-11-21T09:26:06;3.93;;;2.17;;
22184;SDS011;11258;52.516;13.318;2023-11-21T09:28:31;3.30;;;1.93;;
22184;SDS011;11258;52.516;13.318;2023-11-21T09:30:57;4.43;;;2.40;;
22184;SDS011;11258;52.516;13.318;2023-11-21T09:33:23;3.90;;;2.27;;
22184;SDS011;11258;52.516;13.318;2023-11-21T09:35:50;3.67;;;2.60;;
22184;SDS011;11258;52.516;13.318;2023-11-21T09:38:16;3.73;;;2.57;;
22184;SDS011;11258;52.516;13.318;2023-11-21T09:40:41;4.20;;;2.40;;
22184;SDS011;11258;52.516;13.318;2023-11-21T09:43:14;5.70;;;3.37;;
22184;SDS011;11258;52.516;13.318;2023-11-21T09:45:44;6.80;;;3.53;;
22184;SDS011;11258;52.516;13.318;2023-11-21T09:48:12;6.10;;;3.27;;
22184;SDS011;11258;52.516;13.318;2023-11-21T09:50:39;9.53;;;3.50;;
22184;SDS011;11258;52.516;13.318;2023-11-21T09:53:17;10.90;;;4.07;;
22184;SDS011;11258;52.516;13.318;2023-11-21T09:55:52;9.67;;;4.07;;
22184;SDS011;11258;52.516;13.318;2023-11-21T09:58:19;10.23;;;4.03;;
22184;SDS011;11258;52.516;13.318;2023-11-21T10:00:47;11.13;;;4.33;;
22184;SDS011;11258;52.516;13.318;2023-11-21T10:03:14;10.87;;;5.17;;
22184;SDS011;11258;52.516;13.318;2023-11-21T10:05:42;9.87;;;4.97;;
22184;SDS011;11258;52.516;13.318;2023-11-21T10:08:09;10.07;;;4.37;;
22184;SDS011;11258;52.516;13.318;2023-11-21T10:10:43;11.17;;;4.53;;
22184;SDS011;11258;52.516;13.318;2023-11-21T10:13:11;11.83;;;4.60;;
22184;SDS011;11258;52.516;13.318;2023-11-21T10:15:41;12.47;;;4.50;;
22184;SDS011;11258;52.516;13.318;2023-11-21T10:18:13;11.77;;;4.80;;
22184;SDS011;11258;52.516;13.318;2023-11-21T10:20:40;9.97;;;4.33;;
22184;SDS011;11258;52.516;13.318;2023-11-21T10:23:06;10.03;;;4.43;;
22184;SDS011;11258;52.516;13.318;2023-11-21T10:25:36;9.10;;;4.80;;
22184;SDS011;11258;52.516;13.318;2023-11-21T10:28:02;11.03;;;4.37;;
22184;SDS011;11258;52.516;13.318;2023-11-21T10:30:35;7.00;;;4.10;;
22184;SDS011;11258;52.516;13.318;2023-11-21T10:33:03;7.93;;;3.50;;
22184;SDS011;11258;52.516;13.318;2023-11-21T10:38:12;8.47;;;3.70;;
22184;SDS011;11258;52.516;13.318;2023-11-21T10:40:39;11.40;;;4.20;;
22184;SDS011;11258;52.516;13.318;2023-11-21T10:43:07;12.80;;;5.27;;
22184;SDS011;11258;52.516;13.318;2023-11-21T10:45:38;8.43;;;4.43;;
22184;SDS011;11258;52.516;13.318;2023-11-21T10:48:10;8.17;;;3.97;;
22184;SDS011;11258;52.516;13.318;2023-11-21T10:50:42;6.53;;;3.70;;
22184;SDS011;11258;52.516;13.318;2023-11-21T10:53:09;11.43;;;3.93;;
22184;SDS011;11258;52.516;13.318;2023-11-21T10:55:36;7.83;;;4.00;;
22184;SDS011;11258;52.516;13.318;2023-11-21T10:58:02;9.60;;;3.57;;
22184;SDS011;11258;52.516;13.318;2023-11-21T11:00:30;9.20;;;4.50;;
22184;SDS011;11258;52.516;13.318;2023-11-21T11:02:57;11.40;;;4.60;;
22184;SDS011;11258;52.516;13.318;2023-11-21T11:05:24;7.03;;;3.83;;
22184;SDS011;11258;52.516;13.318;2023-11-21T11:08:02;8.77;;;4.43;;
22184;SDS011;11258;52.516;13.318;2023-11-21T11:10:30;7.20;;;3.93;;
22184;SDS011;11258;52.516;13.318;2023-11-21T11:12:57;8.00;;;3.77;;
22184;SDS011;11258;52.516;13.318;2023-11-21T11:15:24;6.60;;;3.80;;
22184;SDS011;11258;52.516;13.318;2023-11-21T11:17:50;9.13;;;3.97;;
22184;SDS011;11258;52.516;13.318;2023-11-21T11:20:17;8.27;;;3.17;;
22184;SDS011;11258;52.516;13.318;2023-11-21T11:34:37;3.70;;;2.30;;
22184;SDS011;11258;52.516;13.318;2023-11-21T11:37:09;3.03;;;2.23;;
22184;SDS011;11258;52.516;13.318;2023-11-21T11:39:35;3.00;;;2.20;;
22184;SDS011;11258;52.516;13.318;2023-11-21T11:42:14;2.67;;;2.03;;
22184;SDS011;11258;52.516;13.318;2023-11-21T11:52:38;2.33;;;1.50;;
22184;SDS011;11258;52.516;13.318;2023-11-21T11:55:06;2.53;;;1.73;;
22184;SDS011;11258;52.516;13.318;2023-11-21T11:57:37;2.93;;;1.97;;
22184;SDS011;11258;52.516;13.318;2023-11-21T12:00:17;4.67;;;2.60;;
22184;SDS011;11258;52.516;13.318;2023-11-21T12:02:58;12.90;;;7.50;;
22184;SDS011;11258;52.516;13.318;2023-11-21T12:05:31;5.63;;;3.13;;
22184;SDS011;11258;52.516;13.318;2023-11-21T12:07:59;3.17;;;2.03;;
22184;SDS011;11258;52.516;13.318;2023-11-21T12:10:27;4.00;;;2.20;;
22184;SDS011;11258;52.516;13.318;2023-11-21T12:12:57;3.80;;;2.30;;
22184;SDS011;11258;52.516;13.318;2023-11-21T12:15:25;2.30;;;1.90;;
22184;SDS011;11258;52.516;13.318;2023-11-21T12:17:54;2.07;;;1.80;;
22184;SDS011;11258;52.516;13.318;2023-11-21T12:20:20;3.00;;;2.30;;
22184;SDS011;11258;52.516;13.318;2023-11-21T12:22:50;6.00;;;2.70;;
22184;SDS011;11258;52.516;13.318;2023-11-21T12:25:17;3.90;;;2.73;;
22184;SDS011;11258;52.516;13.318;2023-11-21T12:27:54;5.97;;;2.70;;
22184;SDS011;11258;52.516;13.318;2023-11-21T12:30:21;5.43;;;2.43;;
22184;SDS011;11258;52.516;13.318;2023-11-21T12:32:52;5.20;;;2.97;;
22184;SDS011;11258;52.516;13.318;2023-11-21T12:35:18;4.43;;;2.90;;
22184;SDS011;11258;52.516;13.318;2023-11-21T12:37:46;2.97;;;2.30;;
22184;SDS011;11258;52.516;13.318;2023-11-21T12:40:12;3.50;;;2.50;;
22184;SDS011;11258;52.516;13.318;2023-11-21T12:42:43;2.83;;;2.30;;
22184;SDS011;11258;52.516;13.318;2023-11-21T12:47:50;4.10;;;2.67;;
22184;SDS011;11258;52.516;13.318;2023-11-21T12:50:23;3.80;;;2.07;;
22184;SDS011;11258;52.516;13.318;2023-11-21T12:52:53;4.03;;;2.33;;
22184;SDS011;11258;52.516;13.318;2023-11-21T12:55:23;2.27;;;1.97;;
22184;SDS011;11258;52.516;13.318;2023-11-21T12:57:51;3.00;;;2.27;;
22184;SDS011;11258;52.516;13.318;2023-11-21T13:00:19;3.33;;;2.03;;
22184;SDS011;11258;52.516;13.318;2023-11-21T13:02:55;2.80;;;2.30;;
22184;SDS011;11258;52.516;13.318;2023-11-21T13:07:55;5.90;;;2.63;;
22184;SDS011;11258;52.516;13.318;2023-11-21T13:10:25;4.00;;;2.33;;
22184;SDS011;11258;52.516;13.318;2023-11-21T13:12:56;4.80;;;3.03;;
22184;SDS011;11258;52.516;13.318;2023-11-21T13:15:28;5.60;;;2.80;;
22184;SDS011;11258;52.516;13.318;2023-11-21T13:17:56;6.27;;;3.13;;
22184;SDS011;11258;52.516;13.318;2023-11-21T13:20:23;6.50;;;3.60;;
22184;SDS011;11258;52.516;13.318;2023-11-21T13:22:53;6.13;;;3.43;;
22184;SDS011;11258;52.516;13.318;2023-11-21T13:25:24;5.43;;;3.83;;
22184;SDS011;11258;52.516;13.318;2023-11-21T13:27:57;6.27;;;3.50;;
22184;SDS011;11258;52.516;13.318;2023-11-21T13:30:27;8.53;;;3.90;;
22184;SDS011;11258;52.516;13.318;2023-11-21T13:32:58;7.53;;;3.70;;
22184;SDS011;11258;52.516;13.318;2023-11-21T13:35:29;6.93;;;3.70;;
22184;SDS011;11258;52.516;13.318;2023-11-21T13:38:09;8.70;;;4.73;;
22184;SDS011;11258;52.516;13.318;2023-11-21T13:40:36;6.73;;;4.47;;
22184;SDS011;11258;52.516;13.318;2023-11-21T13:43:08;8.37;;;4.13;;
22184;SDS011;11258;52.516;13.318;2023-11-21T13:45:37;6.97;;;4.33;;
22184;SDS011;11258;52.516;13.318;2023-11-21T13:48:05;11.20;;;6.20;;
22184;SDS011;11258;52.516;13.318;2023-11-21T13:50:35;10.47;;;5.10;;
22184;SDS011;11258;52.516;13.318;2023-11-21T13:53:02;12.07;;;5.67;;
22184;SDS011;11258;52.516;13.318;2023-11-21T13:55:43;9.43;;;5.17;;
22184;SDS011;11258;52.516;13.318;2023-11-21T13:58:10;13.70;;;5.67;;
22184;SDS011;11258;52.516;13.318;2023-11-21T14:00:41;11.27;;;6.50;;
22184;SDS011;11258;52.516;13.318;2023-11-21T14:03:10;17.27;;;7.73;;
22184;SDS011;11258;52.516;13.318;2023-11-21T14:05:57;16.10;;;8.03;;
22184;SDS011;11258;52.516;13.318;2023-11-21T14:08:25;17.23;;;7.73;;
22184;SDS011;11258;52.516;13.318;2023-11-21T14:10:53;17.23;;;8.27;;
22184;SDS011;11258;52.516;13.318;2023-11-21T14:13:24;20.90;;;8.97;;
22184;SDS011;11258;52.516;13.318;2023-11-21T14:15:50;16.00;;;8.63;;
22184;SDS011;11258;52.516;13.318;2023-11-21T14:18:24;22.00;;;9.73;;
22184;SDS011;11258;52.516;13.318;2023-11-21T14:21:00;22.30;;;9.50;;
22184;SDS011;11258;52.516;13.318;2023-11-21T14:23:26;22.57;;;8.83;;
22184;SDS011;11258;52.516;13.318;2023-11-21T14:25:53;18.47;;;9.17;;
22184;SDS011;11258;52.516;13.318;2023-11-21T14:28:19;20.93;;;9.30;;
22184;SDS011;11258;52.516;13.318;2023-11-21T14:30:46;18.83;;;8.60;;
22184;SDS011;11258;52.516;13.318;2023-11-21T14:33:12;16.63;;;8.03;;
22184;SDS011;11258;52.516;13.318;2023-11-21T14:35:38;13.27;;;7.40;;
22184;SDS011;11258;52.516;13.318;2023-11-21T14:38:03;14.00;;;7.60;;
22184;SDS011;11258;52.516;13.318;2023-11-21T14:40:32;13.43;;;7.43;;
22184;SDS011;11258;52.516;13.318;2023-11-21T14:43:00;15.63;;;7.53;;
22184;SDS011;11258;52.516;13.318;2023-11-21T14:45:32;14.63;;;8.37;;
22184;SDS011;11258;52.516;13.318;2023-11-21T14:47:59;13.67;;;7.27;;
22184;SDS011;11258;52.516;13.318;2023-11-21T14:50:34;11.50;;;7.53;;
22184;SDS011;11258;52.516;13.318;2023-11-21T14:53:12;13.90;;;7.87;;
22184;SDS011;11258;52.516;13.318;2023-11-21T14:55:39;14.00;;;7.80;;
22184;SDS011;11258;52.516;13.318;2023-11-21T14:58:10;13.40;;;7.83;;